sensor_id;sensor_type;location;lat;lon;timestamp;pressure;altitude;pressure_sealevel;temperature;humidity
72438;BME280;60444;43.534;-5.674;2023-02-28T00:00:13;102587.78;;;7.86;100.00
72438;BME280;60444;43.534;-5.674;2023-02-28T00:02:40;102602.19;;;7.82;100.00
72438;BME280;60444;43.534;-5.674;2023-02-28T00:05:07;102613.81;;;7.87;100.00
72438;BME280;60444;43.534;-5.674;2023-02-28T00:07:34;102615.63;;;7.88;100.00
72438;BME280;60444;43.534;-5.674;2023-02-28T00:10:00;102587.88;;;7.77;100.00
72438;BME280;60444;43.534;-5.674;2023-02-28T00:12:26;102585.13;;;7.82;100.00
72438;BME280;60444;43.534;-5.674;2023-02-28T00:14:52;102596.78;;;7.87;100.00
72438;BME280;60444;43.534;-5.674;2023-02-28T00:17:18;102589.59;;;7.84;100.00
72438;BME280;60444;43.534;-5.674;2023-02-28T00:19:52;102602.22;;;7.79;100.00
72438;BME280;60444;43.534;-5.674;2023-02-28T00:22:19;102608.53;;;7.80;99.76
72438;BME280;60444;43.534;-5.674;2023-02-28T00:24:46;102610.34;;;7.73;99.87
72438;BME280;60444;43.534;-5.674;2023-02-28T00:27:12;102607.69;;;7.70;95.94
72438;BME280;60444;43.534;-5.674;2023-02-28T00:29:37;102592.47;;;7.66;100.00
72438;BME280;60444;43.534;-5.674;2023-02-28T00:32:04;102594.34;;;7.57;99.31
72438;BME280;60444;43.534;-5.674;2023-02-28T00:34:30;102589.00;;;7.52;99.73
72438;BME280;60444;43.534;-5.674;2023-02-28T00:36:55;102589.88;;;7.56;100.00
72438;BME280;60444;43.534;-5.674;2023-02-28T00:39:21;102582.69;;;7.53;100.00
72438;BME280;60444;43.534;-5.674;2023-02-28T00:41:46;102602.47;;;7.51;100.00
72438;BME280;60444;43.534;-5.674;2023-02-28T00:44:12;102586.41;;;7.42;100.00
72438;BME280;60444;43.534;-5.674;2023-02-28T00:46:37;102599.72;;;7.57;100.00
72438;BME280;60444;43.534;-5.674;2023-02-28T00:49:03;102623.00;;;7.62;100.00
72438;BME280;60444;43.534;-5.674;2023-02-28T00:51:28;102603.38;;;7.50;100.00
72438;BME280;60444;43.534;-5.674;2023-02-28T00:53:54;102590.03;;;7.34;100.00
72438;BME280;60444;43.534;-5.674;2023-02-28T00:56:19;102595.34;;;7.45;100.00
72438;BME280;60444;43.534;-5.674;2023-02-28T00:58:45;102582.81;;;7.36;100.00
72438;BME280;60444;43.534;-5.674;2023-02-28T01:01:11;102597.03;;;7.55;100.00
72438;BME280;60444;43.534;-5.674;2023-02-28T01:03:36;102604.25;;;7.52;100.00
72438;BME280;60444;43.534;-5.674;2023-02-28T01:06:02;102588.22;;;7.35;100.00
72438;BME280;60444;43.534;-5.674;2023-02-28T01:08:27;102601.59;;;7.46;100.00
72438;BME280;60444;43.534;-5.674;2023-02-28T01:10:53;102591.88;;;7.31;100.00
72438;BME280;60444;43.534;-5.674;2023-02-28T01:13:26;102586.47;;;7.32;100.00
72438;BME280;60444;43.534;-5.674;2023-02-28T01:15:55;102581.09;;;7.28;100.00
72438;BME280;60444;43.534;-5.674;2023-02-28T01:18:22;102576.63;;;7.27;100.00
72438;BME280;60444;43.534;-5.674;2023-02-28T01:20:48;102569.41;;;7.32;100.00
72438;BME280;60444;43.534;-5.674;2023-02-28T01:23:19;102593.59;;;7.38;100.00
72438;BME280;60444;43.534;-5.674;2023-02-28T01:25:45;102571.22;;;7.30;100.00
72438;BME280;60444;43.534;-5.674;2023-02-28T01:28:10;102573.03;;;7.28;100.00
72438;BME280;60444;43.534;-5.674;2023-02-28T01:30:36;102580.16;;;7.33;100.00
72438;BME280;60444;43.534;-5.674;2023-02-28T01:33:01;102576.66;;;7.25;100.00
72438;BME280;60444;43.534;-5.674;2023-02-28T01:35:27;102592.75;;;7.30;100.00
72438;BME280;60444;43.534;-5.674;2023-02-28T01:37:52;102602.59;;;7.34;100.00
72438;BME280;60444;43.534;-5.674;2023-02-28T01:40:18;102603.50;;;7.36;100.00
72438;BME280;60444;43.534;-5.674;2023-02-28T01:42:43;102591.84;;;7.34;100.00
72438;BME280;60444;43.534;-5.674;2023-02-28T01:45:22;102601.59;;;7.49;100.00
72438;BME280;60444;43.534;-5.674;2023-02-28T01:47:52;102599.88;;;7.37;100.00
72438;BME280;60444;43.534;-5.674;2023-02-28T01:50:20;102598.91;;;7.44;100.00
72438;BME280;60444;43.534;-5.674;2023-02-28T01:52:48;102587.28;;;7.41;100.00
72438;BME280;60444;43.534;-5.674;2023-02-28T01:55:16;102589.97;;;7.45;100.00
72438;BME280;60444;43.534;-5.674;2023-02-28T01:57:55;102590.81;;;7.50;100.00
72438;BME280;60444;43.534;-5.674;2023-02-28T02:00:24;102580.03;;;7.50;100.00
72438;BME280;60444;43.534;-5.674;2023-02-28T02:02:58;102605.97;;;7.60;100.00
72438;BME280;60444;43.534;-5.674;2023-02-28T02:05:27;102574.63;;;7.53;100.00
72438;BME280;60444;43.534;-5.674;2023-02-28T02:08:05;102604.13;;;7.64;100.00
72438;BME280;60444;43.534;-5.674;2023-02-28T02:15:31;102578.28;;;7.46;100.00
72438;BME280;60444;43.534;-5.674;2023-02-28T02:18:06;102590.78;;;7.56;100.00
72438;BME280;60444;43.534;-5.674;2023-02-28T02:37:29;102609.53;;;7.62;100.00
72438;BME280;60444;43.534;-5.674;2023-02-28T02:40:02;102588.97;;;7.55;100.00
72438;BME280;60444;43.534;-5.674;2023-02-28T02:42:41;102587.19;;;7.54;100.00
72438;BME280;60444;43.534;-5.674;2023-02-28T02:45:32;102596.09;;;7.62;100.00
72438;BME280;60444;43.534;-5.674;2023-02-28T02:48:03;102594.34;;;7.57;100.00
72438;BME280;60444;43.534;-5.674;2023-02-28T02:50:39;102578.25;;;7.51;100.00
72438;BME280;60444;43.534;-5.674;2023-02-28T02:53:09;102605.00;;;7.72;100.00
72438;BME280;60444;43.534;-5.674;2023-02-28T02:55:40;102594.22;;;7.70;100.00
72438;BME280;60444;43.534;-5.674;2023-02-28T02:58:14;102596.88;;;7.78;100.00
72438;BME280;60444;43.534;-5.674;2023-02-28T03:00:44;102589.81;;;7.63;100.00
72438;BME280;60444;43.534;-5.674;2023-02-28T03:03:12;102590.72;;;7.59;100.00
72438;BME280;60444;43.534;-5.674;2023-02-28T03:05:46;102598.78;;;7.62;100.00
72438;BME280;60444;43.534;-5.674;2023-02-28T03:08:12;102567.47;;;7.51;100.00
72438;BME280;60444;43.534;-5.674;2023-02-28T03:10:46;102596.00;;;7.71;100.00
72438;BME280;60444;43.534;-5.674;2023-02-28T03:21:36;102585.31;;;7.65;100.00
72438;BME280;60444;43.534;-5.674;2023-02-28T03:26:29;102573.72;;;7.54;100.00
72438;BME280;60444;43.534;-5.674;2023-02-28T03:29:08;102586.22;;;7.61;100.00
72438;BME280;60444;43.534;-5.674;2023-02-28T03:31:54;102578.19;;;7.60;100.00
72438;BME280;60444;43.534;-5.674;2023-02-28T03:36:57;102588.94;;;7.60;100.00
72438;BME280;60444;43.534;-5.674;2023-02-28T03:39:29;102574.59;;;7.55;100.00
72438;BME280;60444;43.534;-5.674;2023-02-28T03:42:01;102595.19;;;7.63;100.00
72438;BME280;60444;43.534;-5.674;2023-02-28T03:44:32;102579.97;;;7.55;100.00
72438;BME280;60444;43.534;-5.674;2023-02-28T03:49:39;102588.06;;;7.58;100.00
72438;BME280;60444;43.534;-5.674;2023-02-28T03:52:09;102599.69;;;7.61;100.00
72438;BME280;60444;43.534;-5.674;2023-02-28T03:54:41;102596.13;;;7.55;100.00
72438;BME280;60444;43.534;-5.674;2023-02-28T03:57:15;102605.94;;;7.66;100.00
72438;BME280;60444;43.534;-5.674;2023-02-28T03:59:47;102587.22;;;7.50;100.00
72438;BME280;60444;43.534;-5.674;2023-02-28T04:02:15;102594.41;;;7.51;100.00
72438;BME280;60444;43.534;-5.674;2023-02-28T04:04:40;102598.84;;;7.56;100.00
72438;BME280;60444;43.534;-5.674;2023-02-28T04:07:13;102588.03;;;7.59;100.00
72438;BME280;60444;43.534;-5.674;2023-02-28T04:09:40;102597.09;;;7.51;100.00
72438;BME280;60444;43.534;-5.674;2023-02-28T04:12:05;102591.63;;;7.61;100.00
72438;BME280;60444;43.534;-5.674;2023-02-28T04:14:31;102586.22;;;7.61;100.00
72438;BME280;60444;43.534;-5.674;2023-02-28T04:16:56;102583.56;;;7.57;100.00
72438;BME280;60444;43.534;-5.674;2023-02-28T04:19:22;102601.47;;;7.62;100.00
72438;BME280;60444;43.534;-5.674;2023-02-28T04:21:50;102613.91;;;7.77;100.00
72438;BME280;60444;43.534;-5.674;2023-02-28T04:24:19;102588.06;;;7.58;100.00
72438;BME280;60444;43.534;-5.674;2023-02-28T04:26:47;102610.34;;;7.78;100.00
72438;BME280;60444;43.534;-5.674;2023-02-28T04:29:18;102598.78;;;7.61;100.00
72438;BME280;60444;43.534;-5.674;2023-02-28T04:31:44;102601.38;;;7.76;100.00
72438;BME280;60444;43.534;-5.674;2023-02-28T04:34:09;102604.16;;;7.62;100.00
72438;BME280;60444;43.534;-5.674;2023-02-28T04:36:35;102606.94;;;7.56;100.00
72438;BME280;60444;43.534;-5.674;2023-02-28T04:39:00;102617.59;;;7.67;100.00
72438;BME280;60444;43.534;-5.674;2023-02-28T04:41:26;102621.97;;;7.78;100.00
72438;BME280;60444;43.534;-5.674;2023-02-28T04:43:52;102595.22;;;7.62;100.00
72438;BME280;60444;43.534;-5.674;2023-02-28T04:46:18;102612.25;;;7.62;100.00
72438;BME280;60444;43.534;-5.674;2023-02-28T04:48:44;102605.09;;;7.61;100.00
72438;BME280;60444;43.534;-5.674;2023-02-28T04:51:12;102624.75;;;7.71;100.00
72438;BME280;60444;43.534;-5.674;2023-02-28T04:53:40;102628.38;;;7.67;100.00
72438;BME280;60444;43.534;-5.674;2023-02-28T04:56:06;102624.78;;;7.66;100.00
72438;BME280;60444;43.534;-5.674;2023-02-28T04:58:32;102631.09;;;7.65;100.00
72438;BME280;60444;43.534;-5.674;2023-02-28T05:03:42;102631.13;;;7.59;100.00
72438;BME280;60444;43.534;-5.674;2023-02-28T05:06:09;102626.66;;;7.58;100.00
72438;BME280;60444;43.534;-5.674;2023-02-28T05:08:35;102638.28;;;7.63;100.00
72438;BME280;60444;43.534;-5.674;2023-02-28T05:11:02;102638.22;;;7.69;100.00
72438;BME280;60444;43.534;-5.674;2023-02-28T05:13:28;102624.03;;;7.48;100.00
72438;BME280;60444;43.534;-5.674;2023-02-28T05:15:54;102632.03;;;7.55;100.00
72438;BME280;60444;43.534;-5.674;2023-02-28T05:18:20;102651.69;;;7.68;100.00
72438;BME280;60444;43.534;-5.674;2023-02-28T05:20:46;102652.56;;;7.74;100.00
72438;BME280;60444;43.534;-5.674;2023-02-28T05:23:12;102653.44;;;7.73;100.00
72438;BME280;60444;43.534;-5.674;2023-02-28T05:25:39;102624.06;;;7.45;100.00
72438;BME280;60444;43.534;-5.674;2023-02-28T05:28:05;102621.28;;;7.55;100.00
72438;BME280;60444;43.534;-5.674;2023-02-28T05:30:31;102652.63;;;7.62;100.00
72438;BME280;60444;43.534;-5.674;2023-02-28T05:32:57;102651.72;;;7.66;100.00
72438;BME280;60444;43.534;-5.674;2023-02-28T05:35:23;102641.94;;;7.53;100.00
72438;BME280;60444;43.534;-5.674;2023-02-28T05:37:49;102646.38;;;7.59;100.00
72438;BME280;60444;43.534;-5.674;2023-02-28T05:40:15;102639.28;;;7.50;100.00
72438;BME280;60444;43.534;-5.674;2023-02-28T05:42:41;102656.19;;;7.66;100.00
72438;BME280;60444;43.534;-5.674;2023-02-28T05:45:07;102671.50;;;7.61;100.00
72438;BME280;60444;43.534;-5.674;2023-02-28T05:47:34;102650.94;;;7.52;100.00
72438;BME280;60444;43.534;-5.674;2023-02-28T05:50:03;102676.84;;;7.67;100.00
72438;BME280;60444;43.534;-5.674;2023-02-28T05:52:29;102676.88;;;7.62;100.00
72438;BME280;60444;43.534;-5.674;2023-02-28T05:54:57;102659.84;;;7.57;100.00
72438;BME280;60444;43.534;-5.674;2023-02-28T05:57:23;102671.53;;;7.56;100.00
72438;BME280;60444;43.534;-5.674;2023-02-28T05:59:48;102651.94;;;7.34;100.00
72438;BME280;60444;43.534;-5.674;2023-02-28T06:02:16;102660.84;;;7.43;100.00
72438;BME280;60444;43.534;-5.674;2023-02-28T06:04:42;102671.56;;;7.52;100.00
72438;BME280;60444;43.534;-5.674;2023-02-28T06:07:09;102648.38;;;7.29;100.00
72438;BME280;60444;43.534;-5.674;2023-02-28T06:09:35;102658.19;;;7.35;100.00
72438;BME280;60444;43.534;-5.674;2023-02-28T06:12:02;102674.25;;;7.56;100.00
72438;BME280;60444;43.534;-5.674;2023-02-28T06:14:33;102670.66;;;7.56;100.00
72438;BME280;60444;43.534;-5.674;2023-02-28T06:17:00;102669.84;;;7.43;100.00
72438;BME280;60444;43.534;-5.674;2023-02-28T06:19:26;102674.31;;;7.43;100.00
72438;BME280;60444;43.534;-5.674;2023-02-28T06:21:53;102686.81;;;7.51;100.00
72438;BME280;60444;43.534;-5.674;2023-02-28T06:24:23;102681.50;;;7.45;100.00
72438;BME280;60444;43.534;-5.674;2023-02-28T06:26:49;102685.91;;;7.54;100.00
72438;BME280;60444;43.534;-5.674;2023-02-28T06:29:14;102686.81;;;7.51;100.00
72438;BME280;60444;43.534;-5.674;2023-02-28T06:31:47;102685.06;;;7.47;100.00
72438;BME280;60444;43.534;-5.674;2023-02-28T06:34:13;102686.78;;;7.57;100.00
72438;BME280;60444;43.534;-5.674;2023-02-28T06:36:40;102694.91;;;7.50;100.00
72438;BME280;60444;43.534;-5.674;2023-02-28T06:39:07;102691.31;;;7.51;100.00
72438;BME280;60444;43.534;-5.674;2023-02-28T06:41:33;102689.53;;;7.50;100.00
72438;BME280;60444;43.534;-5.674;2023-02-28T06:44:04;102687.75;;;7.47;100.00
72438;BME280;60444;43.534;-5.674;2023-02-28T06:46:31;102676.97;;;7.46;100.00
72438;BME280;60444;43.534;-5.674;2023-02-28T06:48:56;102701.16;;;7.56;100.00
72438;BME280;60444;43.534;-5.674;2023-02-28T06:51:23;102693.09;;;7.53;100.00
72438;BME280;60444;43.534;-5.674;2023-02-28T06:53:50;102690.41;;;7.53;100.00
72438;BME280;60444;43.534;-5.674;2023-02-28T06:56:16;102704.66;;;7.69;100.00
72438;BME280;60444;43.534;-5.674;2023-02-28T06:58:45;102699.34;;;7.61;100.00
72438;BME280;60444;43.534;-5.674;2023-02-28T07:01:10;102696.72;;;7.49;100.00
72438;BME280;60444;43.534;-5.674;2023-02-28T07:03:36;102702.03;;;7.61;100.00
72438;BME280;60444;43.534;-5.674;2023-02-28T07:06:02;102714.50;;;7.71;100.00
72438;BME280;60444;43.534;-5.674;2023-02-28T07:08:29;102704.69;;;7.64;100.00
72438;BME280;60444;43.534;-5.674;2023-02-28T07:10:55;102718.13;;;7.70;100.00
72438;BME280;60444;43.534;-5.674;2023-02-28T07:13:21;102710.06;;;7.67;100.00
72438;BME280;60444;43.534;-5.674;2023-02-28T07:16:16;102723.44;;;7.81;100.00
72438;BME280;60444;43.534;-5.674;2023-02-28T07:18:41;102723.53;;;7.66;100.00
72438;BME280;60444;43.534;-5.674;2023-02-28T07:21:09;102727.06;;;7.74;100.00
72438;BME280;60444;43.534;-5.674;2023-02-28T07:23:35;102721.75;;;7.65;100.00
72438;BME280;60444;43.534;-5.674;2023-02-28T07:26:03;102736.97;;;7.70;100.00
72438;BME280;60444;43.534;-5.674;2023-02-28T07:28:29;102718.22;;;7.58;100.00
72438;BME280;60444;43.534;-5.674;2023-02-28T07:30:55;102699.34;;;7.60;100.00
72438;BME280;60444;43.534;-5.674;2023-02-28T07:33:20;102728.91;;;7.70;100.00
72438;BME280;60444;43.534;-5.674;2023-02-28T07:35:46;102733.38;;;7.74;100.00
72438;BME280;60444;43.534;-5.674;2023-02-28T07:38:11;102708.28;;;7.60;100.00
72438;BME280;60444;43.534;-5.674;2023-02-28T07:40:39;102720.00;;;7.58;100.00
72438;BME280;60444;43.534;-5.674;2023-02-28T07:43:04;102732.50;;;7.68;100.00
72438;BME280;60444;43.534;-5.674;2023-02-28T07:45:30;102735.22;;;7.60;100.00
72438;BME280;60444;43.534;-5.674;2023-02-28T07:48:00;102748.66;;;7.68;100.00
72438;BME280;60444;43.534;-5.674;2023-02-28T07:50:25;102752.25;;;7.68;100.00
72438;BME280;60444;43.534;-5.674;2023-02-28T07:52:54;102737.00;;;7.66;100.00
72438;BME280;60444;43.534;-5.674;2023-02-28T07:55:19;102736.16;;;7.56;100.00
72438;BME280;60444;43.534;-5.674;2023-02-28T07:57:45;102775.59;;;7.71;100.00
72438;BME280;60444;43.534;-5.674;2023-02-28T08:00:11;102755.78;;;7.79;100.00
72438;BME280;60444;43.534;-5.674;2023-02-28T08:02:38;102753.16;;;7.67;100.00
72438;BME280;60444;43.534;-5.674;2023-02-28T08:05:04;102770.19;;;7.72;100.00
72438;BME280;60444;43.534;-5.674;2023-02-28T08:07:30;102771.97;;;7.72;100.00
72438;BME280;60444;43.534;-5.674;2023-02-28T08:09:56;102776.47;;;7.74;100.00
72438;BME280;60444;43.534;-5.674;2023-02-28T08:12:21;102755.88;;;7.61;100.00
72438;BME280;60444;43.534;-5.674;2023-02-28T08:14:46;102765.75;;;7.65;100.00
72438;BME280;60444;43.534;-5.674;2023-02-28T08:17:12;102754.06;;;7.63;100.00
72438;BME280;60444;43.534;-5.674;2023-02-28T08:19:38;102767.47;;;7.69;100.00
72438;BME280;60444;43.534;-5.674;2023-02-28T08:22:04;102776.38;;;7.85;100.00
72438;BME280;60444;43.534;-5.674;2023-02-28T08:24:30;102775.59;;;7.71;100.00
72438;BME280;60444;43.534;-5.674;2023-02-28T08:26:55;102752.28;;;7.65;100.00
72438;BME280;60444;43.534;-5.674;2023-02-28T08:29:21;102772.00;;;7.69;100.00
72438;BME280;60444;43.534;-5.674;2023-02-28T08:31:47;102770.13;;;7.77;100.00
72438;BME280;60444;43.534;-5.674;2023-02-28T08:34:15;102771.94;;;7.79;100.00
72438;BME280;60444;43.534;-5.674;2023-02-28T08:36:41;102794.34;;;7.89;100.00
72438;BME280;60444;43.534;-5.674;2023-02-28T08:39:10;102782.63;;;7.90;100.00
72438;BME280;60444;43.534;-5.674;2023-02-28T08:41:35;102779.06;;;7.88;100.00
72438;BME280;60444;43.534;-5.674;2023-02-28T08:44:01;102774.56;;;7.88;100.00
72438;BME280;60444;43.534;-5.674;2023-02-28T08:46:27;102783.56;;;7.89;100.00
72438;BME280;60444;43.534;-5.674;2023-02-28T08:48:54;102767.41;;;7.84;100.00
72438;BME280;60444;43.534;-5.674;2023-02-28T08:51:21;102787.84;;;8.15;100.00
72438;BME280;60444;43.534;-5.674;2023-02-28T08:53:57;102768.22;;;7.95;100.00
72438;BME280;60444;43.534;-5.674;2023-02-28T08:56:23;102786.06;;;8.11;100.00
72438;BME280;60444;43.534;-5.674;2023-02-28T08:58:49;102767.22;;;8.11;100.00
72438;BME280;60444;43.534;-5.674;2023-02-28T09:01:16;102770.75;;;8.19;100.00
72438;BME280;60444;43.534;-5.674;2023-02-28T09:03:42;102776.09;;;8.25;100.00
72438;BME280;60444;43.534;-5.674;2023-02-28T09:06:09;102793.06;;;8.43;100.00
72438;BME280;60444;43.534;-5.674;2023-02-28T09:08:35;102797.59;;;8.38;99.56
72438;BME280;60444;43.534;-5.674;2023-02-28T09:11:01;102773.34;;;8.33;90.71
72438;BME280;60444;43.534;-5.674;2023-02-28T09:13:27;102798.38;;;8.52;93.32
72438;BME280;60444;43.534;-5.674;2023-02-28T09:15:53;102790.34;;;8.43;81.50
72438;BME280;60444;43.534;-5.674;2023-02-28T09:18:19;102809.13;;;8.55;86.05
72438;BME280;60444;43.534;-5.674;2023-02-28T09:20:45;102802.84;;;8.56;81.66
72438;BME280;60444;43.534;-5.674;2023-02-28T09:23:12;102792.94;;;8.55;85.66
72438;BME280;60444;43.534;-5.674;2023-02-28T09:25:46;102806.34;;;8.62;80.59
72438;BME280;60444;43.534;-5.674;2023-02-28T09:28:12;102795.63;;;8.55;75.14
72438;BME280;60444;43.534;-5.674;2023-02-28T09:30:37;102800.94;;;8.64;79.88
72438;BME280;60444;43.534;-5.674;2023-02-28T09:33:03;102790.19;;;8.61;75.56
72438;BME280;60444;43.534;-5.674;2023-02-28T09:35:29;102806.25;;;8.73;73.73
72438;BME280;60444;43.534;-5.674;2023-02-28T09:37:56;102799.09;;;8.69;79.09
72438;BME280;60444;43.534;-5.674;2023-02-28T09:40:23;102806.28;;;8.70;71.25
72438;BME280;60444;43.534;-5.674;2023-02-28T09:42:52;102805.38;;;8.71;70.65
72438;BME280;60444;43.534;-5.674;2023-02-28T09:45:32;102814.31;;;8.77;70.93
72438;BME280;60444;43.534;-5.674;2023-02-28T09:48:08;102818.84;;;8.74;78.18
72438;BME280;60444;43.534;-5.674;2023-02-28T09:50:40;102789.25;;;8.63;72.16
72438;BME280;60444;43.534;-5.674;2023-02-28T09:53:31;102812.50;;;8.78;70.73
72438;BME280;60444;43.534;-5.674;2023-02-28T09:56:04;102815.16;;;8.84;72.37
72438;BME280;60444;43.534;-5.674;2023-02-28T09:58:43;102812.47;;;8.79;70.75
72438;BME280;60444;43.534;-5.674;2023-02-28T10:06:37;102815.94;;;8.95;68.89
72438;BME280;60444;43.534;-5.674;2023-02-28T10:09:10;102801.50;;;8.96;70.32
72438;BME280;60444;43.534;-5.674;2023-02-28T10:11:39;102828.44;;;9.02;70.67
72438;BME280;60444;43.534;-5.674;2023-02-28T10:14:23;102821.25;;;9.01;68.49
72438;BME280;60444;43.534;-5.674;2023-02-28T10:16:56;102822.13;;;9.04;73.88
72438;BME280;60444;43.534;-5.674;2023-02-28T10:19:40;102829.28;;;9.07;69.74
72438;BME280;60444;43.534;-5.674;2023-02-28T10:22:27;102798.81;;;8.96;71.08
72438;BME280;60444;43.534;-5.674;2023-02-28T10:24:55;102806.91;;;8.96;68.40
72438;BME280;60444;43.534;-5.674;2023-02-28T10:27:34;102819.31;;;9.15;76.29
72438;BME280;60444;43.534;-5.674;2023-02-28T10:30:01;102817.47;;;9.20;72.47
72438;BME280;60444;43.534;-5.674;2023-02-28T10:32:35;102795.88;;;9.18;68.50
72438;BME280;60444;43.534;-5.674;2023-02-28T10:35:15;102810.06;;;9.35;74.92
72438;BME280;60444;43.534;-5.674;2023-02-28T10:37:44;102813.50;;;9.48;66.84
72438;BME280;60444;43.534;-5.674;2023-02-28T10:46:16;102784.53;;;9.62;61.27
72438;BME280;60444;43.534;-5.674;2023-02-28T10:49:03;102792.59;;;9.65;67.26
72438;BME280;60444;43.534;-5.674;2023-02-28T10:51:38;102796.13;;;9.69;59.55
72438;BME280;60444;43.534;-5.674;2023-02-28T10:54:04;102810.31;;;9.84;61.43
72438;BME280;60444;43.534;-5.674;2023-02-28T10:56:34;102803.22;;;9.77;59.62
72438;BME280;60444;43.534;-5.674;2023-02-28T11:04:39;102814.97;;;9.73;66.46
72438;BME280;60444;43.534;-5.674;2023-02-28T11:07:17;102825.78;;;9.75;58.26
72438;BME280;60444;43.534;-5.674;2023-02-28T11:09:48;102815.06;;;9.67;56.76
72438;BME280;60444;43.534;-5.674;2023-02-28T11:14:56;102820.44;;;9.69;58.41
72438;BME280;60444;43.534;-5.674;2023-02-28T11:17:28;102811.44;;;9.71;59.77
72438;BME280;60444;43.534;-5.674;2023-02-28T11:22:45;102821.25;;;9.75;61.12
72438;BME280;60444;43.534;-5.674;2023-02-28T11:25:38;102820.25;;;9.82;60.71
72438;BME280;60444;43.534;-5.674;2023-02-28T11:28:23;102831.00;;;9.88;66.95
72438;BME280;60444;43.534;-5.674;2023-02-28T11:33:53;102821.78;;;10.01;81.55
72438;BME280;60444;43.534;-5.674;2023-02-28T11:36:21;102818.19;;;10.01;69.94
72438;BME280;60444;43.534;-5.674;2023-02-28T11:38:49;102803.00;;;9.92;61.06
72438;BME280;60444;43.534;-5.674;2023-02-28T11:44:09;102818.09;;;10.10;74.58
72438;BME280;60444;43.534;-5.674;2023-02-28T11:46:45;102811.78;;;10.08;65.53
72438;BME280;60444;43.534;-5.674;2023-02-28T11:52:19;102793.94;;;9.95;74.70
72438;BME280;60444;43.534;-5.674;2023-02-28T11:55:14;102815.41;;;10.07;69.54
72438;BME280;60444;43.534;-5.674;2023-02-28T11:57:56;102793.09;;;9.91;68.85
72438;BME280;60444;43.534;-5.674;2023-02-28T12:06:18;102806.47;;;10.00;70.72
72438;BME280;60444;43.534;-5.674;2023-02-28T12:15:20;102786.81;;;9.89;64.52
72438;BME280;60444;43.534;-5.674;2023-02-28T12:28:23;102773.34;;;9.86;53.77
72438;BME280;60444;43.534;-5.674;2023-02-28T12:30:59;102775.06;;;9.92;55.62
72438;BME280;60444;43.534;-5.674;2023-02-28T12:33:33;102766.06;;;9.93;55.59
72438;BME280;60444;43.534;-5.674;2023-02-28T12:36:04;102748.97;;;9.89;65.31
72438;BME280;60444;43.534;-5.674;2023-02-28T12:38:38;102763.28;;;9.97;59.13
72438;BME280;60444;43.534;-5.674;2023-02-28T12:41:19;102749.00;;;9.88;66.58
72438;BME280;60444;43.534;-5.674;2023-02-28T12:43:55;102757.13;;;9.86;57.30
72438;BME280;60444;43.534;-5.674;2023-02-28T12:46:28;102762.50;;;9.91;56.64
72438;BME280;60444;43.534;-5.674;2023-02-28T12:48:56;102736.47;;;9.82;57.79
72438;BME280;60444;43.534;-5.674;2023-02-28T12:51:24;102757.94;;;9.91;57.21
72438;BME280;60444;43.534;-5.674;2023-02-28T12:56:42;102733.88;;;9.76;56.53
72438;BME280;60444;43.534;-5.674;2023-02-28T13:07:52;102740.88;;;9.89;53.23
72438;BME280;60444;43.534;-5.674;2023-02-28T13:10:23;102734.66;;;9.83;52.75
72438;BME280;60444;43.534;-5.674;2023-02-28T13:12:50;102740.84;;;9.92;53.38
72438;BME280;60444;43.534;-5.674;2023-02-28T13:15:27;102734.53;;;9.92;55.81
72438;BME280;60444;43.534;-5.674;2023-02-28T13:17:58;102730.78;;;10.00;59.65
72438;BME280;60444;43.534;-5.674;2023-02-28T13:20:47;102727.22;;;10.00;66.79
72438;BME280;60444;43.534;-5.674;2023-02-28T13:26:21;102727.28;;;9.94;61.31
72438;BME280;60444;43.534;-5.674;2023-02-28T13:31:29;102732.47;;;10.07;62.72
72438;BME280;60444;43.534;-5.674;2023-02-28T13:36:29;102690.19;;;10.03;69.32
72438;BME280;60444;43.534;-5.674;2023-02-28T13:38:58;102715.13;;;10.22;61.85
72438;BME280;60444;43.534;-5.674;2023-02-28T13:44:08;102720.41;;;10.29;68.67
72438;BME280;60444;43.534;-5.674;2023-02-28T13:52:06;102713.13;;;10.33;58.84
72438;BME280;60444;43.534;-5.674;2023-02-28T13:57:55;102704.63;;;10.56;73.28
72438;BME280;60444;43.534;-5.674;2023-02-28T14:03:03;102706.34;;;10.60;72.50
72438;BME280;60444;43.534;-5.674;2023-02-28T14:05:34;102686.66;;;10.52;60.03
72438;BME280;60444;43.534;-5.674;2023-02-28T14:08:08;102698.97;;;10.68;60.98
72438;BME280;60444;43.534;-5.674;2023-02-28T14:10:45;102682.78;;;10.65;70.05
72438;BME280;60444;43.534;-5.674;2023-02-28T14:20:58;102692.47;;;10.78;74.01
72438;BME280;60444;43.534;-5.674;2023-02-28T14:23:41;102664.66;;;10.70;74.87
72438;BME280;60444;43.534;-5.674;2023-02-28T14:26:19;102684.31;;;10.79;62.75
72438;BME280;60444;43.534;-5.674;2023-02-28T14:35:18;102686.09;;;10.80;69.08
72438;BME280;60444;43.534;-5.674;2023-02-28T14:37:45;102676.25;;;10.75;62.09
72438;BME280;60444;43.534;-5.674;2023-02-28T14:40:33;102690.59;;;10.80;69.80
72438;BME280;60444;43.534;-5.674;2023-02-28T14:43:02;102691.59;;;10.76;56.83
72438;BME280;60444;43.534;-5.674;2023-02-28T14:45:30;102688.84;;;10.77;55.58
72438;BME280;60444;43.534;-5.674;2023-02-28T14:47:56;102683.38;;;10.80;69.91
72438;BME280;60444;43.534;-5.674;2023-02-28T14:50:30;102671.81;;;10.72;59.29
72438;BME280;60444;43.534;-5.674;2023-02-28T14:52:57;102676.34;;;10.72;60.28
72438;BME280;60444;43.534;-5.674;2023-02-28T14:55:31;102678.78;;;10.84;54.96
72438;BME280;60444;43.534;-5.674;2023-02-28T14:57:59;102663.53;;;10.81;53.20
72438;BME280;60444;43.534;-5.674;2023-02-28T15:00:27;102664.31;;;10.86;64.60
72438;BME280;60444;43.534;-5.674;2023-02-28T15:02:55;102663.44;;;10.84;54.08
72438;BME280;60444;43.534;-5.674;2023-02-28T15:08:22;102660.63;;;10.89;57.28
72438;BME280;60444;43.534;-5.674;2023-02-28T15:11:08;102648.22;;;10.79;56.80
72438;BME280;60444;43.534;-5.674;2023-02-28T15:16:04;102658.09;;;10.81;53.18
72438;BME280;60444;43.534;-5.674;2023-02-28T15:18:45;102643.84;;;10.72;50.64
72438;BME280;60444;43.534;-5.674;2023-02-28T15:21:22;102653.75;;;10.73;50.96